sensor_id;sensor_type;location;lat;lon;timestamp;temperature;humidity
15967;DHT22;15175;48.154;11.534;2022-12-07T00:01:16;5.00;99.90
15967;DHT22;15175;48.154;11.534;2022-12-07T00:03:46;5.00;99.90
15967;DHT22;15175;48.154;11.534;2022-12-07T00:06:15;4.90;99.90
15967;DHT22;15175;48.154;11.534;2022-12-07T00:08:43;4.90;99.90
15967;DHT22;15175;48.154;11.534;2022-12-07T00:11:12;4.90;99.90
15967;DHT22;15175;48.154;11.534;2022-12-07T00:13:40;5.00;99.90
15967;DHT22;15175;48.154;11.534;2022-12-07T00:16:08;4.90;99.90
15967;DHT22;15175;48.154;11.534;2022-12-07T00:18:36;4.90;99.90
15967;DHT22;15175;48.154;11.534;2022-12-07T00:21:10;4.90;99.90
15967;DHT22;15175;48.154;11.534;2022-12-07T00:23:38;4.90;99.90
15967;DHT22;15175;48.154;11.534;2022-12-07T00:26:05;4.90;99.90
15967;DHT22;15175;48.154;11.534;2022-12-07T00:28:33;4.90;99.90
15967;DHT22;15175;48.154;11.534;2022-12-07T00:31:02;4.90;99.90
15967;DHT22;15175;48.154;11.534;2022-12-07T00:33:29;4.90;99.90
15967;DHT22;15175;48.154;11.534;2022-12-07T00:35:56;4.90;99.90
15967;DHT22;15175;48.154;11.534;2022-12-07T00:38:27;4.80;99.90
15967;DHT22;15175;48.154;11.534;2022-12-07T00:40:56;4.90;99.90
15967;DHT22;15175;48.154;11.534;2022-12-07T00:43:24;4.80;99.90
15967;DHT22;15175;48.154;11.534;2022-12-07T00:45:52;4.80;99.90
15967;DHT22;15175;48.154;11.534;2022-12-07T00:48:19;4.80;99.90
15967;DHT22;15175;48.154;11.534;2022-12-07T00:50:46;4.80;99.90
15967;DHT22;15175;48.154;11.534;2022-12-07T00:53:14;4.80;99.90
15967;DHT22;15175;48.154;11.534;2022-12-07T00:55:43;4.80;99.90
15967;DHT22;15175;48.154;11.534;2022-12-07T00:58:11;4.80;99.90
15967;DHT22;15175;48.154;11.534;2022-12-07T01:00:40;4.80;99.90
15967;DHT22;15175;48.154;11.534;2022-12-07T01:03:09;4.80;99.90
15967;DHT22;15175;48.154;11.534;2022-12-07T01:05:36;4.90;99.90
15967;DHT22;15175;48.154;11.534;2022-12-07T01:08:04;4.90;99.90
15967;DHT22;15175;48.154;11.534;2022-12-07T01:10:31;4.90;99.90
15967;DHT22;15175;48.154;11.534;2022-12-07T01:13:00;4.90;99.90
15967;DHT22;15175;48.154;11.534;2022-12-07T01:15:27;4.80;99.90
15967;DHT22;15175;48.154;11.534;2022-12-07T01:17:54;4.80;99.90
15967;DHT22;15175;48.154;11.534;2022-12-07T01:20:21;4.80;99.90
15967;DHT22;15175;48.154;11.534;2022-12-07T01:22:48;4.80;99.90
15967;DHT22;15175;48.154;11.534;2022-12-07T01:25:15;4.80;99.90
15967;DHT22;15175;48.154;11.534;2022-12-07T01:27:43;4.80;99.90
15967;DHT22;15175;48.154;11.534;2022-12-07T01:30:12;4.80;99.90
15967;DHT22;15175;48.154;11.534;2022-12-07T01:32:40;4.80;99.90
15967;DHT22;15175;48.154;11.534;2022-12-07T01:35:07;4.70;99.90
15967;DHT22;15175;48.154;11.534;2022-12-07T01:37:35;4.70;99.90
15967;DHT22;15175;48.154;11.534;2022-12-07T01:40:03;4.70;99.90
15967;DHT22;15175;48.154;11.534;2022-12-07T01:42:31;4.70;99.90
15967;DHT22;15175;48.154;11.534;2022-12-07T01:48:04;4.70;99.90
15967;DHT22;15175;48.154;11.534;2022-12-07T01:50:32;4.70;99.90
15967;DHT22;15175;48.154;11.534;2022-12-07T01:53:02;4.60;99.90
15967;DHT22;15175;48.154;11.534;2022-12-07T01:55:31;4.60;99.90
15967;DHT22;15175;48.154;11.534;2022-12-07T01:57:58;4.60;99.90
15967;DHT22;15175;48.154;11.534;2022-12-07T02:00:25;4.60;99.90
15967;DHT22;15175;48.154;11.534;2022-12-07T02:02:57;4.60;99.90
15967;DHT22;15175;48.154;11.534;2022-12-07T02:05:27;4.60;99.90
15967;DHT22;15175;48.154;11.534;2022-12-07T02:07:56;4.60;99.90
15967;DHT22;15175;48.154;11.534;2022-12-07T02:10:30;4.60;99.90
15967;DHT22;15175;48.154;11.534;2022-12-07T02:13:02;4.60;99.90
15967;DHT22;15175;48.154;11.534;2022-12-07T02:15:37;4.60;99.90
15967;DHT22;15175;48.154;11.534;2022-12-07T02:18:09;4.70;99.90
15967;DHT22;15175;48.154;11.534;2022-12-07T02:20:45;4.60;99.90
15967;DHT22;15175;48.154;11.534;2022-12-07T02:29:20;4.60;99.90
15967;DHT22;15175;48.154;11.534;2022-12-07T02:31:59;4.60;99.90
15967;DHT22;15175;48.154;11.534;2022-12-07T02:34:37;4.60;99.90
15967;DHT22;15175;48.154;11.534;2022-12-07T02:37:14;4.60;99.90
15967;DHT22;15175;48.154;11.534;2022-12-07T02:39:48;4.60;99.90
15967;DHT22;15175;48.154;11.534;2022-12-07T02:42:20;4.60;99.90
15967;DHT22;15175;48.154;11.534;2022-12-07T02:44:52;4.60;99.90
15967;DHT22;15175;48.154;11.534;2022-12-07T02:47:20;4.60;99.90
15967;DHT22;15175;48.154;11.534;2022-12-07T02:49:49;4.50;99.90
15967;DHT22;15175;48.154;11.534;2022-12-07T02:52:17;4.50;99.90
15967;DHT22;15175;48.154;11.534;2022-12-07T02:54:44;4.50;99.90
15967;DHT22;15175;48.154;11.534;2022-12-07T02:57:26;4.50;99.90
15967;DHT22;15175;48.154;11.534;2022-12-07T03:00:03;4.50;99.90
15967;DHT22;15175;48.154;11.534;2022-12-07T03:02:38;4.40;99.90
15967;DHT22;15175;48.154;11.534;2022-12-07T03:05:31;4.40;99.90
15967;DHT22;15175;48.154;11.534;2022-12-07T03:08:08;4.40;99.90
15967;DHT22;15175;48.154;11.534;2022-12-07T03:10:48;4.40;99.90
15967;DHT22;15175;48.154;11.534;2022-12-07T03:13:23;4.30;99.90
15967;DHT22;15175;48.154;11.534;2022-12-07T03:15:57;4.30;99.90
15967;DHT22;15175;48.154;11.534;2022-12-07T03:18:30;4.30;99.90
15967;DHT22;15175;48.154;11.534;2022-12-07T03:21:03;4.30;99.90
15967;DHT22;15175;48.154;11.534;2022-12-07T03:23:34;4.40;99.90
15967;DHT22;15175;48.154;11.534;2022-12-07T03:26:03;4.40;99.90
15967;DHT22;15175;48.154;11.534;2022-12-07T03:28:34;4.40;99.90
15967;DHT22;15175;48.154;11.534;2022-12-07T03:31:06;4.50;99.90
15967;DHT22;15175;48.154;11.534;2022-12-07T03:33:41;4.50;99.90
15967;DHT22;15175;48.154;11.534;2022-12-07T03:36:14;4.40;99.90
15967;DHT22;15175;48.154;11.534;2022-12-07T03:38:46;4.40;99.90
15967;DHT22;15175;48.154;11.534;2022-12-07T03:41:17;4.40;99.90
15967;DHT22;15175;48.154;11.534;2022-12-07T03:43:45;4.40;99.90
15967;DHT22;15175;48.154;11.534;2022-12-07T03:46:19;4.40;99.90
15967;DHT22;15175;48.154;11.534;2022-12-07T03:48:55;4.40;99.90
15967;DHT22;15175;48.154;11.534;2022-12-07T03:51:28;4.40;99.90
15967;DHT22;15175;48.154;11.534;2022-12-07T03:54:00;4.40;99.90
15967;DHT22;15175;48.154;11.534;2022-12-07T03:56:30;4.40;99.90
15967;DHT22;15175;48.154;11.534;2022-12-07T03:58:58;4.40;99.90
15967;DHT22;15175;48.154;11.534;2022-12-07T04:01:27;4.50;99.90
15967;DHT22;15175;48.154;11.534;2022-12-07T04:03:54;4.50;99.90
15967;DHT22;15175;48.154;11.534;2022-12-07T04:06:21;4.50;99.90
15967;DHT22;15175;48.154;11.534;2022-12-07T04:08:48;4.50;99.90
15967;DHT22;15175;48.154;11.534;2022-12-07T04:11:15;4.50;99.90
15967;DHT22;15175;48.154;11.534;2022-12-07T04:13:42;4.50;99.90
15967;DHT22;15175;48.154;11.534;2022-12-07T04:16:43;4.50;99.90
15967;DHT22;15175;48.154;11.534;2022-12-07T04:19:10;4.40;99.90
15967;DHT22;15175;48.154;11.534;2022-12-07T04:21:37;4.40;99.90
15967;DHT22;15175;48.154;11.534;2022-12-07T04:24:04;4.40;99.90
15967;DHT22;15175;48.154;11.534;2022-12-07T04:26:31;4.30;99.90
15967;DHT22;15175;48.154;11.534;2022-12-07T04:28:58;4.30;99.90
15967;DHT22;15175;48.154;11.534;2022-12-07T04:31:25;4.40;99.90
15967;DHT22;15175;48.154;11.534;2022-12-07T04:33:54;4.40;99.90
15967;DHT22;15175;48.154;11.534;2022-12-07T04:36:21;4.40;99.90
15967;DHT22;15175;48.154;11.534;2022-12-07T04:38:48;4.40;99.90
15967;DHT22;15175;48.154;11.534;2022-12-07T04:41:15;4.30;99.90
15967;DHT22;15175;48.154;11.534;2022-12-07T04:43:42;4.30;99.90
15967;DHT22;15175;48.154;11.534;2022-12-07T04:46:09;4.30;99.90
15967;DHT22;15175;48.154;11.534;2022-12-07T04:48:36;4.30;99.90
15967;DHT22;15175;48.154;11.534;2022-12-07T04:51:05;4.20;99.90
15967;DHT22;15175;48.154;11.534;2022-12-07T04:53:32;4.20;99.90
15967;DHT22;15175;48.154;11.534;2022-12-07T04:55:59;4.20;99.90
15967;DHT22;15175;48.154;11.534;2022-12-07T04:58:26;4.20;99.90
15967;DHT22;15175;48.154;11.534;2022-12-07T05:00:54;4.20;99.90
15967;DHT22;15175;48.154;11.534;2022-12-07T05:03:22;4.10;99.90
15967;DHT22;15175;48.154;11.534;2022-12-07T05:05:49;4.10;99.90
15967;DHT22;15175;48.154;11.534;2022-12-07T05:08:17;4.10;99.90
15967;DHT22;15175;48.154;11.534;2022-12-07T05:10:44;4.10;99.90
15967;DHT22;15175;48.154;11.534;2022-12-07T05:13:11;4.10;99.90
15967;DHT22;15175;48.154;11.534;2022-12-07T05:15:38;4.10;99.90
15967;DHT22;15175;48.154;11.534;2022-12-07T05:18:05;4.10;99.90
15967;DHT22;15175;48.154;11.534;2022-12-07T05:20:32;4.00;99.90
15967;DHT22;15175;48.154;11.534;2022-12-07T05:22:59;4.00;99.90
15967;DHT22;15175;48.154;11.534;2022-12-07T05:25:28;4.00;99.90
15967;DHT22;15175;48.154;11.534;2022-12-07T05:27:55;4.10;99.90
15967;DHT22;15175;48.154;11.534;2022-12-07T05:30:23;4.10;99.90
15967;DHT22;15175;48.154;11.534;2022-12-07T05:32:50;4.10;99.90
15967;DHT22;15175;48.154;11.534;2022-12-07T05:35:17;4.10;99.90
15967;DHT22;15175;48.154;11.534;2022-12-07T05:37:45;4.10;99.90
15967;DHT22;15175;48.154;11.534;2022-12-07T05:40:13;4.00;99.90
15967;DHT22;15175;48.154;11.534;2022-12-07T05:42:42;4.00;99.90
15967;DHT22;15175;48.154;11.534;2022-12-07T05:45:10;4.10;99.90
15967;DHT22;15175;48.154;11.534;2022-12-07T05:47:37;4.00;99.90
15967;DHT22;15175;48.154;11.534;2022-12-07T05:50:05;4.00;99.90
15967;DHT22;15175;48.154;11.534;2022-12-07T05:52:33;4.00;99.90
15967;DHT22;15175;48.154;11.534;2022-12-07T05:55:00;4.00;99.90
15967;DHT22;15175;48.154;11.534;2022-12-07T05:57:27;4.00;99.90
15967;DHT22;15175;48.154;11.534;2022-12-07T05:59:55;4.00;99.90
15967;DHT22;15175;48.154;11.534;2022-12-07T06:02:21;4.00;99.90
15967;DHT22;15175;48.154;11.534;2022-12-07T06:04:48;4.00;99.90
15967;DHT22;15175;48.154;11.534;2022-12-07T06:07:16;4.00;99.90
15967;DHT22;15175;48.154;11.534;2022-12-07T06:09:43;4.00;99.90
15967;DHT22;15175;48.154;11.534;2022-12-07T06:12:11;4.00;99.90
15967;DHT22;15175;48.154;11.534;2022-12-07T06:14:58;4.00;99.90
15967;DHT22;15175;48.154;11.534;2022-12-07T06:17:25;3.90;99.90
15967;DHT22;15175;48.154;11.534;2022-12-07T06:19:52;3.90;99.90
15967;DHT22;15175;48.154;11.534;2022-12-07T06:22:19;3.90;99.90
15967;DHT22;15175;48.154;11.534;2022-12-07T06:24:46;3.90;99.90
15967;DHT22;15175;48.154;11.534;2022-12-07T06:27:13;3.90;99.90
15967;DHT22;15175;48.154;11.534;2022-12-07T06:29:40;3.90;99.90
15967;DHT22;15175;48.154;11.534;2022-12-07T06:32:09;3.90;99.90
15967;DHT22;15175;48.154;11.534;2022-12-07T06:34:36;3.90;99.90
15967;DHT22;15175;48.154;11.534;2022-12-07T06:37:04;3.90;99.90
15967;DHT22;15175;48.154;11.534;2022-12-07T06:39:31;3.90;99.90
15967;DHT22;15175;48.154;11.534;2022-12-07T06:41:58;3.90;99.90
15967;DHT22;15175;48.154;11.534;2022-12-07T06:44:25;3.90;99.90
15967;DHT22;15175;48.154;11.534;2022-12-07T06:46:52;3.90;99.90
15967;DHT22;15175;48.154;11.534;2022-12-07T06:49:21;3.90;99.90
15967;DHT22;15175;48.154;11.534;2022-12-07T06:51:48;3.90;99.90
15967;DHT22;15175;48.154;11.534;2022-12-07T06:54:15;3.80;99.90
15967;DHT22;15175;48.154;11.534;2022-12-07T06:56:43;3.80;99.90
15967;DHT22;15175;48.154;11.534;2022-12-07T06:59:10;3.80;99.90
15967;DHT22;15175;48.154;11.534;2022-12-07T07:01:37;3.80;99.90
15967;DHT22;15175;48.154;11.534;2022-12-07T07:04:04;3.80;99.90
15967;DHT22;15175;48.154;11.534;2022-12-07T07:06:32;3.80;99.90
15967;DHT22;15175;48.154;11.534;2022-12-07T07:09:00;3.80;99.90
15967;DHT22;15175;48.154;11.534;2022-12-07T07:11:27;3.80;99.90
15967;DHT22;15175;48.154;11.534;2022-12-07T07:13:54;3.80;99.90
15967;DHT22;15175;48.154;11.534;2022-12-07T07:16:23;3.80;99.90
15967;DHT22;15175;48.154;11.534;2022-12-07T07:18:50;3.80;99.90
15967;DHT22;15175;48.154;11.534;2022-12-07T07:21:17;3.80;99.90
15967;DHT22;15175;48.154;11.534;2022-12-07T07:23:46;3.80;99.90
15967;DHT22;15175;48.154;11.534;2022-12-07T07:26:13;3.80;99.90
15967;DHT22;15175;48.154;11.534;2022-12-07T07:28:40;3.80;99.90
15967;DHT22;15175;48.154;11.534;2022-12-07T07:31:07;3.80;99.90
15967;DHT22;15175;48.154;11.534;2022-12-07T07:33:34;3.80;99.90
15967;DHT22;15175;48.154;11.534;2022-12-07T07:36:01;3.80;99.90
15967;DHT22;15175;48.154;11.534;2022-12-07T07:38:28;3.80;99.90
15967;DHT22;15175;48.154;11.534;2022-12-07T07:40:56;3.80;99.90
15967;DHT22;15175;48.154;11.534;2022-12-07T07:43:23;3.80;99.90
15967;DHT22;15175;48.154;11.534;2022-12-07T07:45:50;3.80;99.90
15967;DHT22;15175;48.154;11.534;2022-12-07T07:48:17;3.80;99.90
15967;DHT22;15175;48.154;11.534;2022-12-07T07:50:44;3.80;99.90
15967;DHT22;15175;48.154;11.534;2022-12-07T07:53:11;3.90;99.90
15967;DHT22;15175;48.154;11.534;2022-12-07T07:55:38;3.90;99.90
15967;DHT22;15175;48.154;11.534;2022-12-07T07:58:07;3.90;99.90
15967;DHT22;15175;48.154;11.534;2022-12-07T08:00:35;3.90;99.90
15967;DHT22;15175;48.154;11.534;2022-12-07T08:03:02;4.00;99.90
15967;DHT22;15175;48.154;11.534;2022-12-07T08:05:29;4.00;99.90
15967;DHT22;15175;48.154;11.534;2022-12-07T08:07:57;4.00;99.90
15967;DHT22;15175;48.154;11.534;2022-12-07T08:10:24;4.00;99.90
15967;DHT22;15175;48.154;11.534;2022-12-07T08:12:51;4.00;99.90
15967;DHT22;15175;48.154;11.534;2022-12-07T08:15:38;4.00;99.90
15967;DHT22;15175;48.154;11.534;2022-12-07T08:18:06;4.00;99.90
15967;DHT22;15175;48.154;11.534;2022-12-07T08:20:35;4.00;99.90
15967;DHT22;15175;48.154;11.534;2022-12-07T08:23:02;3.90;99.90
15967;DHT22;15175;48.154;11.534;2022-12-07T08:25:29;3.90;99.90
15967;DHT22;15175;48.154;11.534;2022-12-07T08:27:56;3.90;99.90
15967;DHT22;15175;48.154;11.534;2022-12-07T08:30:23;3.90;99.90
15967;DHT22;15175;48.154;11.534;2022-12-07T08:32:51;3.90;99.90
15967;DHT22;15175;48.154;11.534;2022-12-07T08:35:19;4.00;99.90
15967;DHT22;15175;48.154;11.534;2022-12-07T08:37:46;4.00;99.90
15967;DHT22;15175;48.154;11.534;2022-12-07T08:40:13;4.00;99.90
15967;DHT22;15175;48.154;11.534;2022-12-07T08:42:41;4.00;99.90
15967;DHT22;15175;48.154;11.534;2022-12-07T08:45:12;4.00;99.90
15967;DHT22;15175;48.154;11.534;2022-12-07T08:47:41;4.00;99.90
15967;DHT22;15175;48.154;11.534;2022-12-07T08:50:11;4.00;99.90
15967;DHT22;15175;48.154;11.534;2022-12-07T08:52:39;4.00;99.90
15967;DHT22;15175;48.154;11.534;2022-12-07T08:55:09;4.10;99.90
15967;DHT22;15175;48.154;11.534;2022-12-07T08:57:38;4.10;99.90
15967;DHT22;15175;48.154;11.534;2022-12-07T09:00:07;4.10;99.90
15967;DHT22;15175;48.154;11.534;2022-12-07T09:02:34;4.10;99.90
15967;DHT22;15175;48.154;11.534;2022-12-07T09:05:02;4.10;99.90
15967;DHT22;15175;48.154;11.534;2022-12-07T09:07:30;4.10;99.90
15967;DHT22;15175;48.154;11.534;2022-12-07T09:09:58;4.10;99.90
15967;DHT22;15175;48.154;11.534;2022-12-07T09:12:26;4.20;99.90
15967;DHT22;15175;48.154;11.534;2022-12-07T09:14:53;4.20;99.90
15967;DHT22;15175;48.154;11.534;2022-12-07T09:17:20;4.20;99.90
15967;DHT22;15175;48.154;11.534;2022-12-07T09:19:47;4.20;99.90
15967;DHT22;15175;48.154;11.534;2022-12-07T09:22:14;4.20;99.90
15967;DHT22;15175;48.154;11.534;2022-12-07T09:24:42;4.20;99.90
15967;DHT22;15175;48.154;11.534;2022-12-07T09:27:11;4.30;99.90
15967;DHT22;15175;48.154;11.534;2022-12-07T09:29:38;4.30;99.90
15967;DHT22;15175;48.154;11.534;2022-12-07T09:32:05;4.40;99.90
15967;DHT22;15175;48.154;11.534;2022-12-07T09:34:32;4.40;99.90
15967;DHT22;15175;48.154;11.534;2022-12-07T09:37:00;4.50;99.90
15967;DHT22;15175;48.154;11.534;2022-12-07T09:39:28;4.60;99.90
15967;DHT22;15175;48.154;11.534;2022-12-07T09:41:57;4.60;99.90
15967;DHT22;15175;48.154;11.534;2022-12-07T09:44:26;4.70;99.90
15967;DHT22;15175;48.154;11.534;2022-12-07T09:46:54;4.70;99.90
15967;DHT22;15175;48.154;11.534;2022-12-07T09:49:24;4.60;99.90
15967;DHT22;15175;48.154;11.534;2022-12-07T09:52:01;4.60;99.90
15967;DHT22;15175;48.154;11.534;2022-12-07T09:54:29;4.60;99.90
15967;DHT22;15175;48.154;11.534;2022-12-07T09:56:58;4.70;99.90
15967;DHT22;15175;48.154;11.534;2022-12-07T09:59:25;4.70;99.90
15967;DHT22;15175;48.154;11.534;2022-12-07T10:01:53;4.70;99.90
15967;DHT22;15175;48.154;11.534;2022-12-07T10:04:21;4.80;99.90
15967;DHT22;15175;48.154;11.534;2022-12-07T10:06:49;4.80;99.90
15967;DHT22;15175;48.154;11.534;2022-12-07T10:09:18;4.80;99.90
15967;DHT22;15175;48.154;11.534;2022-12-07T10:12:01;4.80;99.90
15967;DHT22;15175;48.154;11.534;2022-12-07T10:14:31;4.80;99.90
15967;DHT22;15175;48.154;11.534;2022-12-07T10:16:58;4.80;99.90
15967;DHT22;15175;48.154;11.534;2022-12-07T10:19:27;4.80;99.90
15967;DHT22;15175;48.154;11.534;2022-12-07T10:22:08;4.80;99.90
15967;DHT22;15175;48.154;11.534;2022-12-07T10:24:36;4.80;99.90
15967;DHT22;15175;48.154;11.534;2022-12-07T10:27:18;4.90;99.90
15967;DHT22;15175;48.154;11.534;2022-12-07T10:29:51;4.90;99.90
15967;DHT22;15175;48.154;11.534;2022-12-07T10:32:31;4.90;99.90
15967;DHT22;15175;48.154;11.534;2022-12-07T10:35:21;4.90;99.90
15967;DHT22;15175;48.154;11.534;2022-12-07T10:37:49;5.00;99.90
15967;DHT22;15175;48.154;11.534;2022-12-07T10:40:31;5.00;99.90
15967;DHT22;15175;48.154;11.534;2022-12-07T10:43:16;5.00;99.90
15967;DHT22;15175;48.154;11.534;2022-12-07T10:48:57;5.10;99.90
15967;DHT22;15175;48.154;11.534;2022-12-07T10:51:32;5.10;99.90
15967;DHT22;15175;48.154;11.534;2022-12-07T10:54:11;5.10;99.90
15967;DHT22;15175;48.154;11.534;2022-12-07T10:57:04;5.20;99.90
15967;DHT22;15175;48.154;11.534;2022-12-07T10:59:55;5.20;99.90
15967;DHT22;15175;48.154;11.534;2022-12-07T11:02:36;5.20;99.90
15967;DHT22;15175;48.154;11.534;2022-12-07T11:05:16;5.30;99.90
15967;DHT22;15175;48.154;11.534;2022-12-07T11:07:55;5.30;99.90
15967;DHT22;15175;48.154;11.534;2022-12-07T11:10:30;5.30;99.90
15967;DHT22;15175;48.154;11.534;2022-12-07T11:13:04;5.30;99.90
15967;DHT22;15175;48.154;11.534;2022-12-07T11:15:47;5.40;99.90
15967;DHT22;15175;48.154;11.534;2022-12-07T11:18:24;5.50;99.90
15967;DHT22;15175;48.154;11.534;2022-12-07T11:20:56;5.50;99.90
15967;DHT22;15175;48.154;11.534;2022-12-07T11:23:34;5.50;99.90
15967;DHT22;15175;48.154;11.534;2022-12-07T11:26:10;5.60;99.90
15967;DHT22;15175;48.154;11.534;2022-12-07T11:28:56;5.60;99.90
15967;DHT22;15175;48.154;11.534;2022-12-07T11:31:32;5.70;99.90
15967;DHT22;15175;48.154;11.534;2022-12-07T11:34:08;5.70;99.90
15967;DHT22;15175;48.154;11.534;2022-12-07T11:36:41;5.80;99.90
15967;DHT22;15175;48.154;11.534;2022-12-07T11:39:16;5.80;99.90
15967;DHT22;15175;48.154;11.534;2022-12-07T11:41:49;5.80;99.90
15967;DHT22;15175;48.154;11.534;2022-12-07T11:44:26;5.80;99.90
15967;DHT22;15175;48.154;11.534;2022-12-07T11:47:01;5.90;99.90
15967;DHT22;15175;48.154;11.534;2022-12-07T11:49:40;5.90;99.90
15967;DHT22;15175;48.154;11.534;2022-12-07T11:52:17;5.90;99.90
15967;DHT22;15175;48.154;11.534;2022-12-07T11:54:46;5.90;99.90
15967;DHT22;15175;48.154;11.534;2022-12-07T11:57:20;5.90;99.90
15967;DHT22;15175;48.154;11.534;2022-12-07T11:59:52;5.90;99.90
15967;DHT22;15175;48.154;11.534;2022-12-07T12:02:26;5.90;99.90
15967;DHT22;15175;48.154;11.534;2022-12-07T12:04:56;5.90;99.90
15967;DHT22;15175;48.154;11.534;2022-12-07T12:07:26;5.90;99.90
15967;DHT22;15175;48.154;11.534;2022-12-07T12:09:57;5.90;99.90
15967;DHT22;15175;48.154;11.534;2022-12-07T12:12:40;5.90;99.90
15967;DHT22;15175;48.154;11.534;2022-12-07T12:15:32;5.90;99.90
15967;DHT22;15175;48.154;11.534;2022-12-07T12:21:07;6.00;99.90
15967;DHT22;15175;48.154;11.534;2022-12-07T12:23:41;6.00;99.90
15967;DHT22;15175;48.154;11.534;2022-12-07T12:26:17;6.10;99.90
15967;DHT22;15175;48.154;11.534;2022-12-07T12:28:52;6.10;99.90
15967;DHT22;15175;48.154;11.534;2022-12-07T12:31:38;6.20;99.90
15967;DHT22;15175;48.154;11.534;2022-12-07T12:34:31;6.20;99.90
15967;DHT22;15175;48.154;11.534;2022-12-07T12:37:00;6.20;99.90
15967;DHT22;15175;48.154;11.534;2022-12-07T12:39:27;6.20;99.90
15967;DHT22;15175;48.154;11.534;2022-12-07T12:41:56;6.20;99.90
15967;DHT22;15175;48.154;11.534;2022-12-07T12:44:40;6.10;99.90
15967;DHT22;15175;48.154;11.534;2022-12-07T12:47:42;6.00;99.90
15967;DHT22;15175;48.154;11.534;2022-12-07T12:50:17;6.00;99.90
15967;DHT22;15175;48.154;11.534;2022-12-07T12:56:19;6.10;99.90
15967;DHT22;15175;48.154;11.534;2022-12-07T12:59:23;6.10;99.90
15967;DHT22;15175;48.154;11.534;2022-12-07T13:01:51;6.10;99.90
15967;DHT22;15175;48.154;11.534;2022-12-07T13:07:49;6.00;99.90
15967;DHT22;15175;48.154;11.534;2022-12-07T13:10:33;5.90;99.90
15967;DHT22;15175;48.154;11.534;2022-12-07T13:13:08;5.80;99.90
15967;DHT22;15175;48.154;11.534;2022-12-07T13:15:52;5.80;99.90
15967;DHT22;15175;48.154;11.534;2022-12-07T13:18:24;5.80;99.90
15967;DHT22;15175;48.154;11.534;2022-12-07T13:20:55;5.80;99.90
15967;DHT22;15175;48.154;11.534;2022-12-07T13:23:26;5.90;99.90
15967;DHT22;15175;48.154;11.534;2022-12-07T13:26:14;5.90;99.90
15967;DHT22;15175;48.154;11.534;2022-12-07T13:28:45;5.80;99.90
15967;DHT22;15175;48.154;11.534;2022-12-07T13:31:34;5.80;99.90
15967;DHT22;15175;48.154;11.534;2022-12-07T13:34:02;5.80;99.90
15967;DHT22;15175;48.154;11.534;2022-12-07T13:36:32;5.80;99.90
15967;DHT22;15175;48.154;11.534;2022-12-07T13:39:16;5.80;99.90
15967;DHT22;15175;48.154;11.534;2022-12-07T13:41:46;5.90;99.90
15967;DHT22;15175;48.154;11.534;2022-12-07T13:44:18;5.90;99.90
15967;DHT22;15175;48.154;11.534;2022-12-07T13:46:54;5.80;99.90
15967;DHT22;15175;48.154;11.534;2022-12-07T13:49:26;5.80;99.90
15967;DHT22;15175;48.154;11.534;2022-12-07T13:51:54;5.70;99.90
15967;DHT22;15175;48.154;11.534;2022-12-07T13:54:22;5.70;99.90
15967;DHT22;15175;48.154;11.534;2022-12-07T13:56:51;5.70;99.90
15967;DHT22;15175;48.154;11.534;2022-12-07T13:59:22;5.70;99.90
15967;DHT22;15175;48.154;11.534;2022-12-07T14:01:51;5.70;99.90
15967;DHT22;15175;48.154;11.534;2022-12-07T14:04:27;5.70;99.90
15967;DHT22;15175;48.154;11.534;2022-12-07T14:06:56;5.70;99.90
15967;DHT22;15175;48.154;11.534;2022-12-07T14:09:24;5.70;99.90
15967;DHT22;15175;48.154;11.534;2022-12-07T14:11:53;5.60;99.90
15967;DHT22;15175;48.154;11.534;2022-12-07T14:14:25;5.70;99.90
15967;DHT22;15175;48.154;11.534;2022-12-07T14:16:57;5.60;99.90
15967;DHT22;15175;48.154;11.534;2022-12-07T14:19:48;5.50;99.90
15967;DHT22;15175;48.154;11.534;2022-12-07T14:22:23;5.50;99.90
15967;DHT22;15175;48.154;11.534;2022-12-07T14:24:57;5.50;99.90
15967;DHT22;15175;48.154;11.534;2022-12-07T14:27:29;5.50;99.90
15967;DHT22;15175;48.154;11.534;2022-12-07T14:30:00;5.50;99.90
15967;DHT22;15175;48.154;11.534;2022-12-07T14:32:29;5.50;99.90
15967;DHT22;15175;48.154;11.534;2022-12-07T14:34:59;5.40;99.90
15967;DHT22;15175;48.154;11.534;2022-12-07T14:37:27;5.50;99.90
15967;DHT22;15175;48.154;11.534;2022-12-07T14:39:54;5.40;99.90
15967;DHT22;15175;48.154;11.534;2022-12-07T14:42:26;5.40;99.90
15967;DHT22;15175;48.154;11.534;2022-12-07T14:44:54;5.40;99.90
15967;DHT22;15175;48.154;11.534;2022-12-07T14:47:23;5.40;99.90
15967;DHT22;15175;48.154;11.534;2022-12-07T14:49:50;5.40;99.90
15967;DHT22;15175;48.154;11.534;2022-12-07T14:52:19;5.30;99.90
15967;DHT22;15175;48.154;11.534;2022-12-07T14:54:47;5.30;99.90
15967;DHT22;15175;48.154;11.534;2022-12-07T14:57:14;5.30;99.90
15967;DHT22;15175;48.154;11.534;2022-12-07T14:59:41;5.40;99.90
15967;DHT22;15175;48.154;11.534;2022-12-07T15:02:11;5.30;99.90
15967;DHT22;15175;48.154;11.534;2022-12-07T15:04:40;5.30;99.90
15967;DHT22;15175;48.154;11.534;2022-12-07T15:07:13;5.30;99.90
15967;DHT22;15175;48.154;11.534;2022-12-07T15:09:41;5.30;99.90
15967;DHT22;15175;48.154;11.534;2022-12-07T15:12:08;5.30;99.90
15967;DHT22;15175;48.154;11.534;2022-12-07T15:14:35;5.30;99.90
15967;DHT22;15175;48.154;11.534;2022-12-07T15:17:02;5.20;99.90
15967;DHT22;15175;48.154;11.534;2022-12-07T15:19:29;5.20;99.90
15967;DHT22;15175;48.154;11.534;2022-12-07T15:21:58;5.20;99.90
15967;DHT22;15175;48.154;11.534;2022-12-07T15:24:26;5.10;99.90
15967;DHT22;15175;48.154;11.534;2022-12-07T15:26:53;5.20;99.90
15967;DHT22;15175;48.154;11.534;2022-12-07T15:29:20;5.20;99.90
15967;DHT22;15175;48.154;11.534;2022-12-07T15:31:48;5.20;99.90
15967;DHT22;15175;48.154;11.534;2022-12-07T15:34:16;5.20;99.90
15967;DHT22;15175;48.154;11.534;2022-12-07T15:36:43;5.30;99.90
15967;DHT22;15175;48.154;11.534;2022-12-07T15:39:12;5.30;99.90
15967;DHT22;15175;48.154;11.534;2022-12-07T15:41:39;5.30;99.90
15967;DHT22;15175;48.154;11.534;2022-12-07T15:44:06;5.30;99.90
15967;DHT22;15175;48.154;11.534;2022-12-07T15:46:50;5.30;99.90
15967;DHT22;15175;48.154;11.534;2022-12-07T15:49:18;5.30;99.90
15967;DHT22;15175;48.154;11.534;2022-12-07T15:51:46;5.40;99.90
15967;DHT22;15175;48.154;11.534;2022-12-07T15:54:19;5.40;99.90
15967;DHT22;15175;48.154;11.534;2022-12-07T15:56:46;5.40;99.90
15967;DHT22;15175;48.154;11.534;2022-12-07T15:59:13;5.40;99.90
15967;DHT22;15175;48.154;11.534;2022-12-07T16:01:40;5.40;99.90
15967;DHT22;15175;48.154;11.534;2022-12-07T16:04:08;5.40;99.90
15967;DHT22;15175;48.154;11.534;2022-12-07T16:06:35;5.40;99.90
15967;DHT22;15175;48.154;11.534;2022-12-07T16:09:02;5.40;99.90
15967;DHT22;15175;48.154;11.534;2022-12-07T16:11:31;5.40;99.90
15967;DHT22;15175;48.154;11.534;2022-12-07T16:13:58;5.40;99.90